Time;durP1;ratioP1;P1;durP2;ratioP2;P2;SDS_P1;SDS_P2;PMS_P1;PMS_P2;Temp;Humidity;BMP_temperature;BMP_pressure;BME280_temperature;BME280_humidity;BME280_pressure;Samples;Min_cycle;Max_cycle;Signal;HPM_P1;HPM_P2
2023/01/02 00:00:15;;;;;;;33.95;12.37;;;;;;;9.59;100.00;99526.23;2172065;81;21612;-59
2023/01/02 00:03:18;;;;;;;31.05;11.05;;;;;;;9.42;100.00;99528.77;2161584;82;21009;-58
2023/01/02 00:06:20;;;;;;;30.82;11.50;;;;;;;9.41;100.00;99525.75;2172158;81;21028;-59
2023/01/02 00:09:21;;;;;;;31.65;11.00;;;;;;;9.34;100.00;99526.03;2172403;81;21058;-59
2023/01/02 00:12:22;;;;;;;27.93;11.22;;;;;;;9.24;100.00;99521.27;2172102;81;21064;-59
2023/01/02 00:15:24;;;;;;;30.67;11.10;;;;;;;9.21;100.00;99524.02;2172483;82;21571;-59
2023/01/02 00:18:25;;;;;;;31.80;12.00;;;;;;;9.15;100.00;99527.76;2171750;81;21116;-59
2023/01/02 00:21:27;;;;;;;30.17;10.82;;;;;;;9.20;100.00;99517.95;2171985;81;21084;-58
2023/01/02 00:24:28;;;;;;;28.57;10.68;;;;;;;9.19;100.00;99527.58;2172156;81;21065;-58
2023/01/02 00:27:30;;;;;;;28.32;10.50;;;;;;;9.20;100.00;99516.64;2172158;81;21045;-59
2023/01/02 00:30:31;;;;;;;34.50;12.57;;;;;;;9.16;100.00;99530.77;2172365;81;21060;-59
2023/01/02 00:33:33;;;;;;;30.72;11.35;;;;;;;9.21;100.00;99526.64;2172003;81;21132;-59
2023/01/02 00:36:34;;;;;;;32.70;11.63;;;;;;;9.08;100.00;99534.17;2172274;81;21540;-59
2023/01/02 00:39:36;;;;;;;35.28;12.50;;;;;;;9.08;100.00;99535.48;2171785;81;21065;-59
2023/01/02 00:42:37;;;;;;;33.05;11.15;;;;;;;8.97;100.00;99532.05;2172053;81;21053;-59
2023/01/02 00:45:39;;;;;;;30.37;9.80;;;;;;;8.90;100.00;99534.06;2172190;81;21091;-59
2023/01/02 00:48:40;;;;;;;29.50;10.38;;;;;;;8.88;100.00;99533.29;2172216;81;20972;-59
2023/01/02 00:51:41;;;;;;;30.27;10.78;;;;;;;8.81;100.00;99536.61;2172250;82;21037;-59
2023/01/02 00:54:43;;;;;;;28.62;10.05;;;;;;;8.72;100.00;99537.45;2172179;81;21004;-59
2023/01/02 00:57:44;;;;;;;31.03;10.70;;;;;;;8.63;100.00;99530.84;2172453;81;21536;-59
2023/01/02 01:00:46;;;;;;;25.77;9.33;;;;;;;8.66;100.00;99524.17;2174533;81;21069;-59
2023/01/02 01:03:48;;;;;;;27.25;9.20;;;;;;;8.67;100.00;99524.11;2188703;81;21586;-59
2023/01/02 01:06:49;;;;;;;30.50;9.23;;;;;;;8.63;100.00;99520.38;2188756;81;21032;-59
2023/01/02 01:09:51;;;;;;;32.25;11.33;;;;;;;8.60;100.00;99512.67;2188724;81;20984;-59
2023/01/02 01:12:52;;;;;;;31.45;11.75;;;;;;;8.53;100.00;99506.84;2188756;81;21016;-59
2023/01/02 01:15:53;;;;;;;28.17;10.00;;;;;;;8.52;100.00;99503.86;2188785;81;20979;-59
2023/01/02 01:18:55;;;;;;;30.60;10.48;;;;;;;8.48;100.00;99511.42;2189113;81;20983;-59
2023/01/02 01:21:57;;;;;;;31.45;9.90;;;;;;;8.47;100.00;99509.25;2188948;81;21028;-59
2023/01/02 01:24:58;;;;;;;27.30;10.13;;;;;;;8.46;100.00;99512.80;2189114;81;20949;-59
2023/01/02 01:28:00;;;;;;;29.95;10.00;;;;;;;8.45;100.00;99518.09;2188771;81;20933;-59
2023/01/02 01:31:01;;;;;;;32.33;10.50;;;;;;;8.44;100.00;99514.61;2188708;81;21510;-59
2023/01/02 01:34:03;;;;;;;37.10;14.45;;;;;;;8.37;100.00;99512.29;2188771;81;21095;-59
2023/01/02 01:37:04;;;;;;;36.65;14.00;;;;;;;8.35;100.00;99519.33;2188919;81;21563;-59
2023/01/02 01:40:06;;;;;;;30.72;10.75;;;;;;;8.31;100.00;99516.00;2188480;81;20976;-59
2023/01/02 01:43:08;;;;;;;33.02;10.70;;;;;;;8.38;100.00;99513.53;2188843;81;21182;-59
2023/01/02 01:46:09;;;;;;;32.78;10.75;;;;;;;8.47;100.00;99504.02;2188659;81;21044;-59
2023/01/02 01:49:11;;;;;;;31.35;10.90;;;;;;;8.49;100.00;99506.56;2189210;81;20980;-59
2023/01/02 01:52:12;;;;;;;28.95;9.53;;;;;;;8.48;100.00;99499.66;2188670;81;21012;-59
2023/01/02 01:55:13;;;;;;;31.45;9.83;;;;;;;8.49;100.00;99503.95;2188847;81;20976;-59
2023/01/02 01:58:15;;;;;;;30.73;10.50;;;;;;;8.54;100.00;99503.32;2189030;81;20997;-59
2023/01/02 02:01:16;;;;;;;30.57;9.55;;;;;;;8.57;100.00;99495.34;2185010;81;21512;-59
2023/01/02 02:04:18;;;;;;;31.20;9.85;;;;;;;8.65;100.00;99488.50;2172404;81;20949;-59
2023/01/02 02:07:20;;;;;;;28.80;9.70;;;;;;;8.68;100.00;99487.05;2172353;82;20973;-59
2023/01/02 02:10:21;;;;;;;28.20;10.10;;;;;;;8.69;100.00;99483.97;2172310;81;21067;-59
2023/01/02 02:13:23;;;;;;;30.45;10.00;;;;;;;8.73;100.00;99489.00;2172225;81;20985;-59
2023/01/02 02:16:24;;;;;;;28.00;9.93;;;;;;;8.88;100.00;99488.81;2172632;81;21507;-59
2023/01/02 02:19:26;;;;;;;25.70;9.50;;;;;;;8.98;100.00;99480.11;2172207;82;21069;-59
2023/01/02 02:22:27;;;;;;;28.73;10.00;;;;;;;9.07;100.00;99481.00;2172112;81;21065;-58
2023/01/02 02:25:28;;;;;;;30.68;10.00;;;;;;;9.11;100.00;99478.64;2172373;81;21653;-59
2023/01/02 02:28:30;;;;;;;31.75;11.10;;;;;;;9.18;100.00;99476.61;2172106;81;21030;-59
2023/01/02 02:31:31;;;;;;;30.50;10.70;;;;;;;9.15;100.00;99480.64;2172083;81;21511;-58
2023/01/02 02:34:33;;;;;;;28.62;9.58;;;;;;;9.11;100.00;99481.73;2172198;81;21064;-58
2023/01/02 02:37:34;;;;;;;26.68;9.58;;;;;;;9.05;100.00;99473.69;2172026;81;21568;-58
2023/01/02 02:40:36;;;;;;;26.35;9.75;;;;;;;9.00;100.00;99470.41;2172258;81;21083;-59
2023/01/02 02:43:37;;;;;;;29.50;10.45;;;;;;;8.97;100.00;99470.55;2172085;81;21053;-59
2023/01/02 02:46:39;;;;;;;31.15;11.25;;;;;;;8.97;100.00;99458.78;2172221;81;21632;-58
2023/01/02 02:49:40;;;;;;;31.33;11.20;;;;;;;8.94;100.00;99455.00;2172036;81;21480;-58
2023/01/02 02:52:42;;;;;;;32.67;10.97;;;;;;;8.86;100.00;99454.00;2172408;81;21416;-58
2023/01/02 02:55:43;;;;;;;31.35;12.20;;;;;;;8.84;100.00;99463.23;2172047;81;21072;-58
2023/01/02 02:58:45;;;;;;;27.48;10.55;;;;;;;8.87;100.00;99457.02;2172305;82;21048;-59
2023/01/02 03:01:47;;;;;;;28.98;10.32;;;;;;;8.97;100.00;99456.16;2177077;81;21428;-58
2023/01/02 03:04:48;;;;;;;30.90;11.30;;;;;;;8.94;100.00;99456.30;2188525;81;21565;-58
2023/01/02 03:07:49;;;;;;;30.43;10.68;;;;;;;8.89;100.00;99446.48;2188644;81;21003;-58
2023/01/02 03:10:51;;;;;;;29.90;11.12;;;;;;;8.87;100.00;99441.80;2188732;81;21523;-58
2023/01/02 03:13:52;;;;;;;31.10;11.50;;;;;;;8.84;100.00;99438.85;2188759;81;21007;-58
2023/01/02 03:16:54;;;;;;;32.75;12.40;;;;;;;8.84;100.00;99440.16;2188669;81;21040;-59
2023/01/02 03:19:55;;;;;;;32.42;12.18;;;;;;;8.83;100.00;99436.70;2189070;81;21019;-58
2023/01/02 03:22:57;;;;;;;31.45;12.30;;;;;;;8.81;100.00;99445.53;2188654;81;21008;-59
2023/01/02 03:25:58;;;;;;;31.42;12.35;;;;;;;8.74;100.00;99448.02;2189020;81;21479;-58
2023/01/02 03:29:00;;;;;;;30.00;12.40;;;;;;;8.68;100.00;99441.29;2188889;81;21024;-58
2023/01/02 03:32:01;;;;;;;33.65;13.13;;;;;;;8.63;100.00;99434.09;2188951;81;21102;-58
2023/01/02 03:35:03;;;;;;;31.77;13.00;;;;;;;8.44;100.00;99432.26;2188991;81;20941;-59
2023/01/02 03:38:04;;;;;;;32.90;13.22;;;;;;;8.44;100.00;99427.47;2188622;81;21273;-59
2023/01/02 03:41:06;;;;;;;35.13;14.05;;;;;;;8.37;100.00;99420.33;2188665;81;20995;-59
2023/01/02 03:44:07;;;;;;;34.25;14.30;;;;;;;8.21;100.00;99425.36;2188565;81;21068;-59
2023/01/02 03:47:09;;;;;;;40.83;15.65;;;;;;;8.13;100.00;99424.81;2188794;81;21101;-59
2023/01/02 03:50:10;;;;;;;38.33;15.55;;;;;;;8.04;100.00;99431.74;2188714;81;20949;-59
2023/01/02 03:53:11;;;;;;;39.25;16.17;;;;;;;8.08;100.00;99434.16;2188591;81;21099;-59
2023/01/02 03:56:13;;;;;;;38.00;16.42;;;;;;;8.06;100.00;99430.77;2188989;81;20976;-59
2023/01/02 03:59:15;;;;;;;40.10;15.83;;;;;;;8.09;100.00;99422.80;2188510;81;21083;-58
2023/01/02 04:02:16;;;;;;;40.17;16.37;;;;;;;8.11;100.00;99420.13;2188717;81;21607;-59
2023/01/02 04:05:18;;;;;;;37.75;15.80;;;;;;;8.08;100.00;99428.09;2188392;81;21044;-58
2023/01/02 04:08:20;;;;;;;40.15;16.73;;;;;;;8.05;100.00;99430.37;2188778;81;21596;-58
2023/01/02 04:11:21;;;;;;;40.48;17.07;;;;;;;8.00;100.00;99429.70;2188733;81;20965;-59
2023/01/02 04:14:23;;;;;;;41.75;17.40;;;;;;;7.89;100.00;99419.70;2188595;81;20965;-58
2023/01/02 04:17:24;;;;;;;37.05;16.52;;;;;;;7.85;100.00;99410.28;2188969;81;20937;-59
2023/01/02 04:20:25;;;;;;;40.55;17.23;;;;;;;7.86;100.00;99404.59;2188787;81;20980;-59
2023/01/02 04:23:27;;;;;;;39.85;16.90;;;;;;;7.89;100.00;99402.72;2188822;81;21597;-58
2023/01/02 04:26:28;;;;;;;46.40;18.25;;;;;;;7.85;100.00;99403.75;2188788;81;21016;-59
2023/01/02 04:29:30;;;;;;;43.13;16.90;;;;;;;7.76;100.00;99412.81;2188762;81;20984;-59
2023/01/02 04:32:31;;;;;;;46.18;17.62;;;;;;;7.64;100.00;99414.59;2189021;81;21072;-59
2023/01/02 04:35:33;;;;;;;38.98;16.20;;;;;;;7.50;100.00;99420.38;2189020;81;20996;-59
2023/01/02 04:38:34;;;;;;;41.20;16.17;;;;;;;7.35;100.00;99425.72;2189159;81;21464;-59
2023/01/02 04:41:36;;;;;;;42.45;17.52;;;;;;;7.32;100.00;99428.45;2189136;81;21015;-59
2023/01/02 04:44:37;;;;;;;39.70;17.90;;;;;;;7.34;100.00;99421.86;2188689;81;21523;-58
2023/01/02 04:47:39;;;;;;;45.95;18.57;;;;;;;7.39;100.00;99425.16;2188972;81;21008;-58
2023/01/02 04:50:40;;;;;;;41.55;17.57;;;;;;;7.41;100.00;99427.23;2189005;81;20957;-58
2023/01/02 04:53:42;;;;;;;45.33;18.97;;;;;;;7.44;100.00;99421.90;2189066;81;21005;-58
2023/01/02 04:56:43;;;;;;;41.98;18.32;;;;;;;7.37;100.00;99430.88;2188765;81;20985;-59
2023/01/02 04:59:45;;;;;;;45.12;18.50;;;;;;;7.42;100.00;99432.86;2188961;81;20976;-59
2023/01/02 05:02:46;;;;;;;43.58;18.85;;;;;;;7.33;100.00;99434.53;2188789;81;21016;-59
2023/01/02 05:05:48;;;;;;;40.77;18.50;;;;;;;7.29;100.00;99429.41;2189030;81;21008;-59
2023/01/02 05:08:49;;;;;;;48.98;26.33;;;;;;;7.15;100.00;99439.98;2188754;81;20976;-59
2023/01/02 05:11:51;;;;;;;45.05;19.42;;;;;;;6.97;100.00;99445.40;2188868;81;21479;-58
2023/01/02 05:14:53;;;;;;;44.77;18.93;;;;;;;6.89;100.00;99446.53;2188983;81;20965;-59
2023/01/02 05:17:54;;;;;;;45.30;20.20;;;;;;;6.67;100.00;99457.34;2188763;81;21172;-58
2023/01/02 05:20:56;;;;;;;42.30;18.87;;;;;;;6.63;100.00;99451.83;2188961;81;21059;-59
2023/01/02 05:23:57;;;;;;;43.75;19.30;;;;;;;6.61;100.00;99454.50;2188747;81;21231;-59
2023/01/02 05:26:59;;;;;;;53.68;27.22;;;;;;;6.53;100.00;99447.39;2188995;81;20976;-59
2023/01/02 05:30:00;;;;;;;41.20;18.15;;;;;;;6.36;100.00;99451.40;2188675;81;20976;-59
2023/01/02 05:33:01;;;;;;;43.08;19.30;;;;;;;6.14;100.00;99451.73;2188705;81;21518;-59
2023/01/02 05:36:03;;;;;;;47.00;22.40;;;;;;;5.96;100.00;99443.59;2188756;81;20949;-59
2023/01/02 05:39:05;;;;;;;52.15;22.98;;;;;;;5.97;100.00;99449.21;2188636;81;21515;-59
2023/01/02 05:42:06;;;;;;;48.70;22.10;;;;;;;6.05;100.00;99444.61;2188815;81;20950;-58
2023/01/02 05:45:07;;;;;;;49.85;20.52;;;;;;;6.11;100.00;99444.87;2188380;81;21010;-59
2023/01/02 05:48:09;;;;;;;41.58;19.27;;;;;;;6.10;100.00;99444.45;2189090;81;21012;-58
2023/01/02 05:51:10;;;;;;;46.25;19.87;;;;;;;6.12;100.00;99443.97;2188716;81;21036;-58
2023/01/02 05:54:12;;;;;;;48.02;19.95;;;;;;;6.17;100.00;99429.03;2188691;81;21579;-59
2023/01/02 05:57:13;;;;;;;42.98;19.95;;;;;;;6.20;100.00;99431.98;2188732;81;21068;-58
2023/01/02 06:00:15;;;;;;;46.58;21.20;;;;;;;6.24;100.00;99423.17;2188341;81;21000;-58
2023/01/02 06:03:16;;;;;;;46.50;20.55;;;;;;;6.28;100.00;99432.59;2179933;81;20993;-59
2023/01/02 06:06:18;;;;;;;44.90;21.97;;;;;;;6.28;100.00;99433.02;2172046;81;21048;-58
2023/01/02 06:09:19;;;;;;;45.67;21.27;;;;;;;6.34;100.00;99440.66;2172279;82;21316;-58
2023/01/02 06:12:20;;;;;;;50.85;22.45;;;;;;;6.38;100.00;99440.49;2172079;82;21045;-59
2023/01/02 06:15:22;;;;;;;45.60;21.15;;;;;;;6.47;100.00;99447.14;2172217;81;21566;-58
2023/01/02 06:18:23;;;;;;;46.77;21.17;;;;;;;6.46;100.00;99439.38;2172115;81;21002;-58
2023/01/02 06:21:25;;;;;;;48.52;22.52;;;;;;;6.50;100.00;99443.13;2172301;82;21559;-59
2023/01/02 06:24:27;;;;;;;49.38;22.17;;;;;;;6.45;100.00;99436.36;2172107;81;21044;-59
2023/01/02 06:27:28;;;;;;;49.42;23.50;;;;;;;6.35;100.00;99430.61;2172117;81;21053;-59
2023/01/02 06:30:30;;;;;;;51.42;24.35;;;;;;;6.29;100.00;99421.25;2172204;81;20974;-58
2023/01/02 06:33:31;;;;;;;47.55;23.30;;;;;;;6.24;100.00;99420.56;2172072;81;21081;-58
2023/01/02 06:36:33;;;;;;;48.90;23.18;;;;;;;6.26;100.00;99417.45;2172394;81;21532;-59
2023/01/02 06:39:34;;;;;;;49.65;23.60;;;;;;;6.23;100.00;99411.04;2172290;81;21084;-58
2023/01/02 06:42:36;;;;;;;55.33;25.65;;;;;;;6.34;100.00;99408.92;2172190;81;21013;-58
2023/01/02 06:45:38;;;;;;;59.77;27.07;;;;;;;6.29;100.00;99415.19;2172070;81;21139;-58
2023/01/02 06:48:39;;;;;;;60.92;28.65;;;;;;;6.24;100.00;99414.05;2172024;81;21316;-58
2023/01/02 06:51:41;;;;;;;65.60;29.80;;;;;;;6.26;100.00;99408.79;2172489;82;21508;-58
2023/01/02 06:54:42;;;;;;;59.13;26.50;;;;;;;6.20;100.00;99405.94;2172171;81;21000;-58
2023/01/02 06:57:43;;;;;;;56.35;26.50;;;;;;;6.29;100.00;99407.37;2172113;81;21064;-58
2023/01/02 07:00:45;;;;;;;63.15;29.82;;;;;;;6.33;100.00;99407.22;2172161;81;21048;-58
2023/01/02 07:03:46;;;;;;;61.40;27.30;;;;;;;6.38;100.00;99394.05;2182061;81;21112;-58
2023/01/02 07:06:48;;;;;;;57.23;25.80;;;;;;;6.39;100.00;99395.73;2188654;81;21555;-58
2023/01/02 07:09:49;;;;;;;52.62;25.23;;;;;;;6.43;100.00;99389.52;2188621;81;21025;-59
2023/01/02 07:12:51;;;;;;;52.95;26.55;;;;;;;6.49;100.00;99391.89;2188537;81;21050;-58
2023/01/02 07:15:52;;;;;;;51.80;26.23;;;;;;;6.56;100.00;99388.63;2188906;81;21010;-58
2023/01/02 07:18:53;;;;;;;51.45;26.27;;;;;;;6.73;100.00;99394.08;2188597;81;21015;-59
2023/01/02 07:21:55;;;;;;;51.75;24.45;;;;;;;6.87;100.00;99394.05;2188893;81;21452;-58
2023/01/02 07:24:57;;;;;;;48.38;23.67;;;;;;;6.97;100.00;99395.84;2188399;81;21016;-58
2023/01/02 07:27:58;;;;;;;50.75;23.87;;;;;;;7.00;100.00;99395.76;2188634;81;21540;-58
2023/01/02 07:31:00;;;;;;;52.67;24.53;;;;;;;7.11;100.00;99399.66;2188749;81;21078;-59
2023/01/02 07:34:01;;;;;;;60.08;27.37;;;;;;;7.21;100.00;99393.64;2188481;81;21452;-58
2023/01/02 07:37:03;;;;;;;49.50;23.47;;;;;;;7.34;100.00;99390.55;2188814;81;20985;-59
2023/01/02 07:40:04;;;;;;;47.70;22.03;;;;;;;7.32;100.00;99390.61;2188542;81;21060;-58
2023/01/02 07:43:06;;;;;;;49.27;21.93;;;;;;;7.39;100.00;99389.92;2188780;81;21048;-58
2023/01/02 07:46:07;;;;;;;45.52;21.93;;;;;;;7.42;100.00;99389.80;2188617;81;21060;-58
2023/01/02 07:49:09;;;;;;;43.80;21.90;;;;;;;7.49;100.00;99391.73;2188808;81;21516;-59
2023/01/02 07:52:10;;;;;;;47.83;23.85;;;;;;;7.57;100.00;99389.20;2188609;81;20941;-58
2023/01/02 07:55:12;;;;;;;51.03;23.03;;;;;;;7.65;100.00;99384.97;2188839;81;21548;-59
2023/01/02 07:58:13;;;;;;;46.00;22.02;;;;;;;7.72;100.00;99385.59;2188871;81;21018;-58
2023/01/02 08:01:14;;;;;;;47.60;23.38;;;;;;;7.87;100.00;99377.57;2188588;81;21024;-58
2023/01/02 08:04:16;;;;;;;49.50;23.38;;;;;;;7.96;100.00;99381.13;2188812;81;21112;-58
2023/01/02 08:07:18;;;;;;;45.13;21.27;;;;;;;8.07;100.00;99384.11;2188557;81;21199;-59
2023/01/02 08:10:20;;;;;;;45.70;22.75;;;;;;;8.14;100.00;99387.33;2188815;81;21709;-58
2023/01/02 08:13:22;;;;;;;49.77;22.43;;;;;;;8.24;100.00;99392.55;2188819;81;21011;-59
2023/01/02 08:16:23;;;;;;;46.80;21.40;;;;;;;8.35;100.00;99384.27;2188854;81;20991;-59
2023/01/02 08:19:25;;;;;;;46.47;22.83;;;;;;;8.39;100.00;99379.31;2188903;81;21008;-58
2023/01/02 08:22:26;;;;;;;44.50;21.60;;;;;;;8.48;100.00;99378.09;2188987;81;21686;-59
2023/01/02 08:25:28;;;;;;;46.37;22.45;;;;;;;8.60;100.00;99385.84;2188729;81;21024;-58
2023/01/02 08:28:29;;;;;;;42.13;21.30;;;;;;;8.61;100.00;99387.55;2188713;81;21523;-58
2023/01/02 08:31:30;;;;;;;47.73;22.50;;;;;;;8.64;100.00;99383.49;2188809;81;20980;-58
2023/01/02 08:34:32;;;;;;;46.90;22.57;;;;;;;8.76;100.00;99379.48;2188784;81;21023;-58
2023/01/02 08:37:33;;;;;;;46.98;21.33;;;;;;;8.83;100.00;99376.98;2188996;81;21027;-59
2023/01/02 08:40:35;;;;;;;47.25;22.50;;;;;;;8.91;100.00;99377.95;2188967;81;20949;-58
2023/01/02 08:43:36;;;;;;;45.15;22.02;;;;;;;8.94;100.00;99374.73;2188711;81;21028;-58
2023/01/02 08:46:38;;;;;;;46.68;21.87;;;;;;;8.96;100.00;99373.34;2188976;81;20980;-58
2023/01/02 08:49:40;;;;;;;49.07;22.10;;;;;;;9.06;100.00;99373.31;2188912;81;20992;-59
2023/01/02 08:52:41;;;;;;;44.55;22.07;;;;;;;9.09;100.00;99372.33;2188979;81;20997;-58
2023/01/02 08:55:42;;;;;;;42.45;20.97;;;;;;;9.22;100.00;99372.61;2188726;81;20976;-59
2023/01/02 08:58:44;;;;;;;46.00;21.07;;;;;;;9.27;100.00;99377.18;2188950;81;21443;-58
2023/01/02 09:01:46;;;;;;;41.77;20.62;;;;;;;9.42;100.00;99369.05;2188338;81;21012;-59
2023/01/02 09:04:47;;;;;;;42.53;20.68;;;;;;;9.53;100.00;99370.23;2188607;81;21622;-59
2023/01/02 09:07:49;;;;;;;45.35;20.65;;;;;;;9.68;100.00;99363.42;2188768;81;21015;-59
2023/01/02 09:10:50;;;;;;;44.40;20.95;;;;;;;9.88;100.00;99362.44;2188731;81;21003;-59
2023/01/02 09:13:52;;;;;;;44.75;21.95;;;;;;;9.98;100.00;99360.19;2188966;81;20961;-58
2023/01/02 09:16:53;;;;;;;43.23;19.75;;;;;;;10.23;100.00;99351.10;2188793;81;20945;-58
2023/01/02 09:19:55;;;;;;;46.20;20.50;;;;;;;10.43;100.00;99357.11;2188639;81;21057;-59
2023/01/02 09:22:56;;;;;;;39.23;19.17;;;;;;;10.68;100.00;99355.38;2188760;81;21048;-59
2023/01/02 09:25:58;;;;;;;43.47;19.27;;;;;;;10.85;100.00;99345.30;2189244;81;21459;-58
2023/01/02 09:29:00;;;;;;;43.68;19.77;;;;;;;11.02;100.00;99352.23;2188743;81;21056;-58
2023/01/02 09:32:01;;;;;;;45.63;20.40;;;;;;;11.10;100.00;99346.10;2188753;81;21554;-59
2023/01/02 09:35:03;;;;;;;41.63;19.90;;;;;;;11.18;100.00;99351.78;2188749;81;21087;-58
2023/01/02 09:38:04;;;;;;;41.53;19.02;;;;;;;11.25;100.00;99347.05;2188743;81;21057;-59
2023/01/02 09:41:09;;;;;;;43.17;19.05;;;;;;;11.39;100.00;99341.88;2188629;81;21080;-58
2023/01/02 09:44:10;;;;;;;40.63;18.25;;;;;;;11.42;100.00;99341.70;2172059;81;21020;-58
2023/01/02 09:47:11;;;;;;;43.05;18.35;;;;;;;11.58;100.00;99338.21;2189110;81;21463;-59
2023/01/02 09:50:13;;;;;;;41.55;18.45;;;;;;;11.67;100.00;99333.73;2188689;81;21020;-59
2023/01/02 09:53:14;;;;;;;42.10;18.80;;;;;;;11.90;100.00;99323.67;2188696;81;21559;-59
2023/01/02 09:56:16;;;;;;;39.17;18.27;;;;;;;12.08;100.00;99317.81;2189086;81;20972;-58
2023/01/02 09:59:18;;;;;;;42.27;19.25;;;;;;;12.30;100.00;99316.08;2188453;81;21194;-59
2023/01/02 10:02:20;;;;;;;39.25;17.00;;;;;;;12.53;100.00;99317.31;2188960;81;20953;-58
2023/01/02 10:05:21;;;;;;;40.17;18.20;;;;;;;12.86;100.00;99310.03;2174133;81;21830;-59
2023/01/02 10:08:23;;;;;;;38.30;17.73;;;;;;;13.00;100.00;99310.88;2172519;81;21053;-59
2023/01/02 10:11:24;;;;;;;36.83;17.50;;;;;;;13.24;100.00;99301.50;2172312;82;21033;-59
2023/01/02 10:14:26;;;;;;;38.50;17.12;;;;;;;13.25;100.00;99305.83;2172155;81;21143;-59
2023/01/02 10:17:28;;;;;;;36.33;16.45;;;;;;;13.29;100.00;99300.74;2172186;81;21069;-59
2023/01/02 10:20:29;;;;;;;40.35;21.40;;;;;;;13.39;100.00;99295.73;2172476;81;20973;-58
2023/01/02 10:23:31;;;;;;;34.58;15.75;;;;;;;13.37;100.00;99294.52;2172347;81;21065;-59
2023/01/02 10:26:33;;;;;;;33.48;15.10;;;;;;;13.62;100.00;99292.44;2172071;81;21064;-58
2023/01/02 10:29:34;;;;;;;34.48;15.28;;;;;;;13.64;100.00;99290.53;2172207;81;20977;-59
2023/01/02 10:32:35;;;;;;;34.85;16.07;;;;;;;13.57;100.00;99284.47;2172180;82;21523;-59
2023/01/02 10:35:37;;;;;;;36.95;16.57;;;;;;;13.75;100.00;99288.52;2172234;81;21033;-59
2023/01/02 10:38:38;;;;;;;34.50;14.97;;;;;;;13.97;100.00;99290.55;2172452;82;21610;-59
2023/01/02 10:41:40;;;;;;;33.53;14.97;;;;;;;13.88;100.00;99274.04;2172211;81;21810;-59
2023/01/02 10:44:41;;;;;;;33.57;14.73;;;;;;;13.88;100.00;99274.04;2172322;81;21049;-59
2023/01/02 10:47:43;;;;;;;32.93;14.40;;;;;;;13.83;100.00;99274.81;2172344;81;21586;-59
2023/01/02 10:50:45;;;;;;;40.30;15.05;;;;;;;13.78;100.00;99273.81;2172259;82;21111;-59
2023/01/02 10:53:47;;;;;;;36.45;14.13;;;;;;;13.83;100.00;99265.58;2172231;81;21131;-59
2023/01/02 10:56:48;;;;;;;32.13;13.60;;;;;;;13.71;100.00;99261.16;2172456;81;21053;-59
2023/01/02 10:59:50;;;;;;;31.15;13.50;;;;;;;13.91;100.00;99259.81;2172169;81;21535;-59
2023/01/02 11:02:51;;;;;;;32.05;12.75;;;;;;;14.12;100.00;99257.02;2172338;82;21025;-59
2023/01/02 11:05:53;;;;;;;32.37;12.97;;;;;;;14.36;100.00;99247.02;2187978;81;21063;-60
2023/01/02 11:08:54;;;;;;;31.40;12.80;;;;;;;14.55;100.00;99243.47;2188773;81;21095;-59
2023/01/02 11:11:56;;;;;;;30.23;12.33;;;;;;;14.73;100.00;99243.13;2188877;81;21081;-59
2023/01/02 11:14:57;;;;;;;33.18;11.63;;;;;;;14.74;100.00;99248.79;2189002;81;21058;-59
2023/01/02 11:17:59;;;;;;;30.00;11.50;;;;;;;14.95;100.00;99242.41;2188903;81;20949;-59
2023/01/02 11:21:03;;;;;;;29.15;11.60;;;;;;;14.99;100.00;99241.73;2188944;81;21506;-59
2023/01/02 11:24:03;;;;;;;31.17;12.23;;;;;;;15.07;100.00;99241.53;2172370;81;20985;-59
2023/01/02 11:27:05;;;;;;;33.50;12.28;;;;;;;15.25;100.00;99231.89;2189014;81;20984;-59
2023/01/02 11:30:06;;;;;;;29.20;11.83;;;;;;;15.36;100.00;99233.75;2189120;81;21499;-59
2023/01/02 11:33:08;;;;;;;32.53;11.67;;;;;;;15.42;100.00;99236.75;2188751;81;21016;-60
2023/01/02 11:36:10;;;;;;;31.33;12.82;;;;;;;15.37;100.00;99245.52;2188953;81;21579;-58
2023/01/02 11:39:11;;;;;;;27.87;11.10;;;;;;;15.35;100.00;99246.59;2188831;81;20973;-59
2023/01/02 11:45:16;;;;;;;25.48;10.93;;;;;;;15.38;100.00;99239.75;2172035;81;21467;-59
2023/01/02 11:48:19;;;;;;;28.50;11.28;;;;;;;15.45;100.00;99234.37;2188504;81;21111;-59
2023/01/02 11:51:20;;;;;;;27.55;10.63;;;;;;;15.62;100.00;99225.17;2188843;81;21012;-59
2023/01/02 11:54:22;;;;;;;28.80;10.03;;;;;;;15.74;100.00;99231.33;2188821;81;21028;-59
2023/01/02 11:57:23;;;;;;;28.37;10.37;;;;;;;15.88;100.00;99222.38;2188863;81;21559;-59
2023/01/02 12:00:24;;;;;;;27.37;10.70;;;;;;;15.96;100.00;99223.97;2189215;81;20976;-59
2023/01/02 12:03:29;;;;;;;28.38;9.90;;;;;;;15.91;100.00;99218.17;2170759;81;21004;-59
2023/01/02 12:06:30;;;;;;;;;;;;;;;15.89;100.00;99216.14;2174886;82;21032;-59
2023/01/02 12:09:32;;;;;;;31.15;10.95;;;;;;;15.83;100.00;99209.52;2172250;81;20142;-59
2023/01/02 12:12:33;;;;;;;27.83;10.87;;;;;;;15.82;100.00;99195.09;2172522;81;20950;-59
2023/01/02 12:15:35;;;;;;;25.67;10.33;;;;;;;15.83;100.00;99191.00;2172107;81;21084;-59
2023/01/02 12:18:36;;;;;;;30.20;10.67;;;;;;;15.91;100.00;99191.72;2172581;82;21540;-59
2023/01/02 12:21:38;;;;;;;26.40;10.23;;;;;;;16.02;100.00;99185.58;2172401;81;21064;-59
2023/01/02 12:24:39;;;;;;;28.80;10.35;;;;;;;16.17;100.00;99192.33;2172161;81;21536;-59
2023/01/02 12:27:41;;;;;;;27.73;10.03;;;;;;;16.22;100.00;99188.85;2172062;82;21085;-59
2023/01/02 12:30:42;;;;;;;25.77;10.10;;;;;;;16.31;100.00;99187.78;2172224;81;21568;-59
2023/01/02 12:33:44;;;;;;;27.13;10.13;;;;;;;16.38;100.00;99178.38;2172390;81;21084;-59
2023/01/02 12:36:45;;;;;;;27.97;10.33;;;;;;;16.50;100.00;99181.36;2172298;81;21041;-59
2023/01/02 12:39:48;;;;;;;28.07;9.90;;;;;;;16.48;100.00;99181.11;2172599;81;21104;-59
2023/01/02 12:42:50;;;;;;;28.02;10.58;;;;;;;16.28;100.00;99186.20;2127728;83;21040;-60
2023/01/02 12:45:51;;;;;;;26.87;10.47;;;;;;;16.21;100.00;99188.98;2172575;81;21005;-59
2023/01/02 12:48:53;;;;;;;29.18;10.53;;;;;;;16.13;100.00;99196.66;2172110;81;21549;-59
2023/01/02 12:51:54;;;;;;;27.37;9.87;;;;;;;16.04;100.00;99196.91;2172448;82;21008;-59
2023/01/02 12:54:56;;;;;;;28.80;10.17;;;;;;;15.98;100.00;99188.13;2172405;82;21487;-59
2023/01/02 12:57:57;;;;;;;28.77;10.97;;;;;;;16.05;100.00;99185.37;2172589;81;21000;-59
2023/01/02 13:00:59;;;;;;;30.80;10.72;;;;;;;15.98;100.00;99178.87;2172282;82;21045;-59
2023/01/02 13:04:02;;;;;;;28.77;10.32;;;;;;;15.91;100.00;99178.50;2174748;81;21508;-59
2023/01/02 13:07:03;;;;;;;27.13;10.40;;;;;;;15.84;100.00;99172.83;2188909;81;20968;-59
2023/01/02 13:10:04;;;;;;;29.57;10.33;;;;;;;15.74;100.00;99171.83;2188900;81;21008;-59
2023/01/02 13:13:06;;;;;;;29.43;10.80;;;;;;;15.62;100.00;99168.83;2189026;81;21013;-59
2023/01/02 13:16:07;;;;;;;28.27;10.10;;;;;;;15.66;100.00;99172.89;2189007;81;21228;-59
2023/01/02 13:19:09;;;;;;;26.70;10.20;;;;;;;15.62;100.00;99182.05;2189054;81;21448;-59
2023/01/02 13:22:10;;;;;;;29.30;10.90;;;;;;;15.55;100.00;99167.11;2189012;81;21003;-59
2023/01/02 13:25:12;;;;;;;29.00;11.10;;;;;;;15.47;100.00;99161.07;2188992;81;21471;-59
2023/01/02 13:28:13;;;;;;;28.57;10.35;;;;;;;15.37;100.00;99159.63;2189213;81;20980;-59
2023/01/02 13:31:15;;;;;;;28.38;10.55;;;;;;;15.35;100.00;99159.38;2189107;81;21064;-59
2023/01/02 13:34:16;;;;;;;27.00;10.73;;;;;;;15.32;100.00;99169.69;2189105;81;21031;-59
2023/01/02 13:37:18;;;;;;;27.73;10.57;;;;;;;15.29;100.00;99177.02;2188699;81;20992;-59
2023/01/02 13:40:20;;;;;;;29.05;10.82;;;;;;;15.20;100.00;99180.70;2188943;81;21017;-59
2023/01/02 13:43:21;;;;;;;26.15;10.55;;;;;;;15.12;100.00;99180.92;2188533;81;20989;-59
2023/01/02 13:46:23;;;;;;;31.77;12.67;;;;;;;15.09;100.00;99183.80;2189246;81;21523;-59
2023/01/02 13:49:25;;;;;;;35.20;14.20;;;;;;;15.12;100.00;99186.20;2188885;81;21016;-59
2023/01/02 13:52:26;;;;;;;39.50;16.03;;;;;;;15.02;100.00;99182.91;2189366;81;21538;-59